Escribe el Código OACI del Aeropuerto

Buscar por Aeropuerto o Ciudad

Información Meteorológica Actual

UATT | Aktobe Airport

Aktobe, Kazakhstan

Última Actualización Hace 26 Minutos

Cielo Despejado

06 ºC Bajo Cero de Temperatura

Vientos Leves a Moderados del Este

Temperatura

06 ºC Bajo Cero

Temperatura del Punto de Rocío

09 ºC Bajo Cero

Humedad Relativa

79.12 %

Dirección del Viento

Este (090º, Sin Variaciones de Consideración)

Velocidad del Viento

14 km/h (4 kt)

Ráfagas

No Hay

Visibilidad

Sin Reducciones de Consideración

Presión Reducida a Nivel del Mar

1033 hPa (Hectopascales)

Capas de Nubes

No Hay

METAR UATT 071400Z 09004MPS CAVOK M06/M09 Q1033 NOSIG RMK QFE755/1007

Pronóstico Meteorológico

UATT | Aktobe Airport

Aktobe, Kazakhstan

Pronóstico válido para las próximas 22 Horas

A partir de este momento se espera:

Cielo Mayormente Nublado

Vientos Leves a Moderados del Este

En 6 a 8 horas se espera el comienzo de:

Neblina

Vientos Leves a Moderados del SurEste

En 16 horas se espera el comienzo de:

Cielo Mayormente Nublado

Temperatura Máxima

03 ºC Bajo Cero en -2 Horas

Temperatura Mínima

08 ºC Bajo Cero en 6 Horas

TAF UATT 071106Z 0712/0812 09005MPS 9999 BKN020 TXM03/0712Z TNM08/0720Z BECMG 0720/0722 13003MPS 3100 BR BKN005 FM080600 13005MPS 9999 BKN011